Soda Springs, ID

6:51 PM MST on December 26, 2014 (GMT -0700)
One Mile Road | Change Station
CLOSE
Current Station
Personal Weather Station
Location: Grace, ID
Elevation: 5538 ft
Nearby Weather Stations
Active Advisory: Winter Weather Advisory Active Notice: Local Storm Report

Elev 5538 ft 42.56 °N, 111.74 °W | Updated 2 minutes ago

Mostly Cloudy
Mostly Cloudy
15.3 °F
Feels Like 9 °F
N
4.0
Wind Variable Wind from North
Gusts 10.0 mph

Today
High -- | Low -- °F
--% Chance of Precip.
Yesterday
High -- | Low -- °F
Precip. -- in
7:55 AM 4:58 PM
Waxing Crescent, 31% visible
Pressure 30.04 in
Visibility 4.0 miles
Clouds Mostly Cloudy 2900 ft
Overcast 5000 ft
Windchill 9 °F
Dew Point 10 °F
Humidity 79%
Rainfall 0.00 in
Snow Depth Not available.
UV 0 out of 12
Pollen .10 out of 12
Air Quality Not available.
Flu Activity Not available.
METAR KAFO 270135Z AUTO 00000KT 4SM -SN BKN029 OVC050 M10/M11 A3004 RMK AO2

More Conditions Fewer Conditions

Pressure 30.04 in
Visibility 4.0 miles
Clouds Mostly Cloudy 2900 ft
Overcast 5000 ft
Windchill 9 °F
Dew Point 10 °F
Humidity 79%
Rainfall 0.00 in
Snow Depth Not available.
UV 0 out of 12
Pollen .10 out of 12
Air Quality Not available.
Flu Activity Not available.
METAR KAFO 270135Z AUTO 00000KT 4SM -SN BKN029 OVC050 M10/M11 A3004 RMK AO2

More Conditions Fewer Conditions

10-Day Weather Forecast

Almanac

Astronomy

Dec. 26, 2014 Rise Set
Actual Time
Civil Twilight
Nautical Twilight
Astronomical Twilight
Moon
Length of Visible Light
Length of Day
Tomorrow will be .
, % of the Moon is Illuminated

Today's Extremes

State Highs State Lows

Community

WunderPhotos

Upload Photos

1,780,804 photos uploaded!

WunderBlogs® & News

Nearby

Air Quality

  Air Quality AQ Index Pollutant
Not available.

Snow Depth

Station Depth Elevation

Earthquake Activity

City Distance Mag. Time & Date
Minimum magnitude displayed is 2.5.

Coastal Water Temperatures

Place Temperature

Nearby Weather Stations